createdAt,value
2023-09-21T00:01:54.709Z,9.13
2023-09-21T00:04:42.042Z,11.45
2023-09-21T00:07:09.490Z,11.40
2023-09-21T00:09:37.149Z,10.93
2023-09-21T00:12:04.933Z,15.20
2023-09-21T00:14:36.303Z,12.40
2023-09-21T00:17:04.754Z,12.43
2023-09-21T00:19:31.872Z,7.97
2023-09-21T00:21:59.261Z,8.70
2023-09-21T00:24:26.580Z,10.57
2023-09-21T00:26:53.858Z,9.88
2023-09-21T00:29:21.171Z,8.85
2023-09-21T00:31:48.419Z,11.07
2023-09-21T00:34:15.691Z,12.02
2023-09-21T00:36:44.254Z,9.80
2023-09-21T00:39:12.666Z,11.02
2023-09-21T00:41:39.953Z,9.27
2023-09-21T00:44:09.535Z,8.95
2023-09-21T00:46:39.776Z,10.50
2023-09-21T00:49:07.849Z,8.98
2023-09-21T00:51:35.492Z,8.82
2023-09-21T00:54:11.121Z,9.25
2023-09-21T00:56:40.072Z,10.50
2023-09-21T00:59:07.509Z,13.27
2023-09-21T01:01:39.006Z,8.93
2023-09-21T01:04:08.205Z,12.10
2023-09-21T01:06:35.661Z,7.72
2023-09-21T01:09:05.321Z,8.57
2023-09-21T01:11:32.729Z,10.05
2023-09-21T01:14:00.105Z,10.15
2023-09-21T01:16:28.440Z,9.45
2023-09-21T01:18:55.943Z,13.40
2023-09-21T01:21:36.135Z,9.95
2023-09-21T01:24:06.437Z,10.30
2023-09-21T01:26:35.466Z,8.20
2023-09-21T01:29:02.963Z,9.30
2023-09-21T01:31:31.282Z,9.38
2023-09-21T01:34:00.437Z,9.88
2023-09-21T01:36:28.107Z,8.20
2023-09-21T01:38:56.052Z,8.10
2023-09-21T01:41:24.536Z,9.57
2023-09-21T01:44:10.665Z,9.80
2023-09-21T01:46:37.969Z,11.10
2023-09-21T01:49:05.526Z,9.60
2023-09-21T01:51:33.479Z,9.57
2023-09-21T01:54:00.708Z,9.90
2023-09-21T01:56:29.397Z,8.15
2023-09-21T01:58:56.735Z,9.70
2023-09-21T02:01:24.064Z,8.38
2023-09-21T02:03:53.301Z,8.23
2023-09-21T02:06:20.710Z,10.10
2023-09-21T02:08:48.449Z,8.73
2023-09-21T02:11:16.179Z,8.57
2023-09-21T02:13:43.504Z,8.52
2023-09-21T02:16:10.904Z,8.07
2023-09-21T02:18:38.349Z,7.40
2023-09-21T02:21:09.024Z,8.95
2023-09-21T02:23:38.990Z,6.93
2023-09-21T02:26:08.373Z,11.63
2023-09-21T02:28:35.875Z,9.13
2023-09-21T02:31:03.138Z,7.32
2023-09-21T02:33:31.321Z,10.00
2023-09-21T02:35:58.824Z,8.98
2023-09-21T02:38:27.875Z,8.77
2023-09-21T02:40:55.222Z,8.50
2023-09-21T02:43:22.565Z,9.88
2023-09-21T02:45:51.044Z,8.43
2023-09-21T02:48:18.758Z,8.93
2023-09-21T02:50:49.891Z,8.88
2023-09-21T02:53:18.401Z,9.10
2023-09-21T02:55:47.202Z,8.20
2023-09-21T02:58:15.316Z,8.45
2023-09-21T03:00:47.616Z,7.55
2023-09-21T03:03:17.453Z,10.73
2023-09-21T03:05:47.896Z,6.72
2023-09-21T03:08:18.460Z,8.55
2023-09-21T03:10:51.276Z,10.40
2023-09-21T03:13:20.763Z,9.32
2023-09-21T03:15:52.083Z,9.50
2023-09-21T03:18:20.832Z,9.68
2023-09-21T03:20:53.823Z,11.20
2023-09-21T03:23:23.816Z,9.27
2023-09-21T03:25:52.571Z,8.20
2023-09-21T03:28:21.265Z,10.73
2023-09-21T03:30:52.037Z,7.63
2023-09-21T03:33:22.602Z,9.10
2023-09-21T03:35:50.806Z,8.13
2023-09-21T03:38:20.651Z,8.88
2023-09-21T03:40:49.873Z,9.32
2023-09-21T03:43:19.998Z,9.40
2023-09-21T03:45:48.477Z,13.88
2023-09-21T03:48:17.952Z,10.57
2023-09-21T03:50:46.070Z,7.30
2023-09-21T03:53:15.852Z,10.32
2023-09-21T03:55:43.246Z,8.80
2023-09-21T03:58:11.799Z,10.65
2023-09-21T04:00:39.820Z,11.18
2023-09-21T04:03:12.195Z,13.77
2023-09-21T04:05:50.008Z,8.65
2023-09-21T04:08:17.357Z,7.93
2023-09-21T04:10:44.481Z,9.07
2023-09-21T04:13:12.187Z,7.95
2023-09-21T04:15:39.526Z,10.02
2023-09-21T04:18:11.134Z,9.75
2023-09-21T04:20:42.197Z,8.13
2023-09-21T04:23:10.064Z,7.72
2023-09-21T04:25:39.944Z,8.52
2023-09-21T04:28:07.535Z,14.57
2023-09-21T04:30:36.102Z,7.32
2023-09-21T04:33:06.050Z,10.63
2023-09-21T04:35:34.004Z,8.70
2023-09-21T04:38:01.770Z,7.57
2023-09-21T04:40:28.925Z,8.10
2023-09-21T04:42:58.538Z,8.05
2023-09-21T04:45:28.338Z,7.82
2023-09-21T04:48:00.690Z,10.38
2023-09-21T04:50:31.130Z,7.90
2023-09-21T04:52:58.492Z,10.35
2023-09-21T04:55:26.556Z,9.43
2023-09-21T04:57:55.220Z,13.15
2023-09-21T05:00:23.024Z,9.48
2023-09-21T05:02:50.664Z,9.52
2023-09-21T05:05:21.015Z,9.88
2023-09-21T05:07:48.346Z,8.13
2023-09-21T05:10:16.598Z,7.75
2023-09-21T05:12:44.190Z,13.48
2023-09-21T05:15:16.230Z,10.10
2023-09-21T05:17:44.132Z,8.38
2023-09-21T05:20:11.685Z,10.10
2023-09-21T05:22:41.128Z,9.63
2023-09-21T05:25:09.360Z,9.15
2023-09-21T05:27:37.783Z,7.97
2023-09-21T05:30:06.236Z,10.68
2023-09-21T05:32:36.766Z,8.68
2023-09-21T05:35:07.374Z,10.57
2023-09-21T05:37:36.635Z,9.25
2023-09-21T05:40:09.089Z,8.45
2023-09-21T05:42:36.840Z,10.83
2023-09-21T05:45:05.293Z,7.53
2023-09-21T05:47:33.945Z,11.10
2023-09-21T05:50:01.374Z,9.38
2023-09-21T05:52:31.740Z,10.93
2023-09-21T05:54:59.265Z,7.28
2023-09-21T05:57:26.593Z,9.68
2023-09-21T05:59:54.144Z,9.68
2023-09-21T06:02:21.664Z,8.30
2023-09-21T06:04:49.082Z,9.02
2023-09-21T06:07:16.490Z,9.95
2023-09-21T06:09:45.088Z,7.70
2023-09-21T06:12:12.423Z,9.93
2023-09-21T06:14:40.050Z,10.18
2023-09-21T06:17:08.134Z,8.95
2023-09-21T06:19:36.699Z,10.70
2023-09-21T06:22:04.432Z,9.25
2023-09-21T06:24:32.872Z,8.68
2023-09-21T06:27:00.315Z,8.25
2023-09-21T06:29:27.732Z,9.52
2023-09-21T06:34:26.755Z,10.80
2023-09-21T06:36:54.454Z,10.80
2023-09-21T06:39:22.821Z,9.25
2023-09-21T06:41:50.254Z,10.93
2023-09-21T06:44:19.711Z,9.05
2023-09-21T06:46:47.486Z,10.15
2023-09-21T06:49:15.371Z,11.85
2023-09-21T06:51:42.764Z,9.82
2023-09-21T06:54:10.088Z,10.10
2023-09-21T06:56:37.270Z,11.25
2023-09-21T06:59:07.891Z,9.30
2023-09-21T07:01:35.737Z,12.30
2023-09-21T07:04:05.301Z,9.95
2023-09-21T07:06:33.350Z,7.50
2023-09-21T07:09:02.268Z,9.57
2023-09-21T07:11:29.674Z,9.77
2023-09-21T07:13:57.034Z,8.70
2023-09-21T07:16:24.515Z,9.07
2023-09-21T07:18:51.961Z,9.85
2023-09-21T07:21:19.403Z,9.90
2023-09-21T07:23:46.728Z,12.10
2023-09-21T07:26:14.045Z,11.77
2023-09-21T07:28:41.374Z,10.02
2023-09-21T07:31:10.723Z,10.15
2023-09-21T07:33:38.303Z,9.05
2023-09-21T07:36:06.505Z,13.95
2023-09-21T07:38:33.639Z,9.70
2023-09-21T07:41:00.999Z,10.68
2023-09-21T07:43:30.141Z,9.07
2023-09-21T07:45:58.600Z,10.48
2023-09-21T07:48:28.045Z,13.35
2023-09-21T07:50:58.016Z,12.05
2023-09-21T07:53:28.748Z,10.13
2023-09-21T07:55:59.395Z,11.18
2023-09-21T07:58:26.745Z,9.18
2023-09-21T08:00:56.912Z,9.60
2023-09-21T08:03:28.013Z,13.57
2023-09-21T08:05:55.752Z,11.65
2023-09-21T08:08:26.191Z,11.63
2023-09-21T08:10:54.963Z,11.77
2023-09-21T08:13:22.489Z,12.30
2023-09-21T08:15:49.858Z,12.82
2023-09-21T08:18:17.457Z,12.32
2023-09-21T08:20:44.902Z,12.52
2023-09-21T08:23:12.135Z,11.20
2023-09-21T08:25:39.732Z,10.48
2023-09-21T08:28:08.622Z,13.55
2023-09-21T08:30:39.211Z,12.20
2023-09-21T08:33:09.615Z,10.60
2023-09-21T08:35:36.953Z,11.70
2023-09-21T08:38:04.881Z,15.80
2023-09-21T08:40:35.780Z,16.65
2023-09-21T08:43:05.073Z,16.30
2023-09-21T08:45:32.564Z,11.75
2023-09-21T08:48:01.677Z,14.15
2023-09-21T08:50:29.383Z,16.10
2023-09-21T08:52:58.918Z,19.83
2023-09-21T08:55:27.182Z,16.95
2023-09-21T08:57:55.270Z,13.02
2023-09-21T09:00:28.330Z,11.55
2023-09-21T09:02:55.919Z,9.25
2023-09-21T09:05:24.509Z,8.63
2023-09-21T09:07:52.474Z,12.13
2023-09-21T09:10:19.716Z,9.70
2023-09-21T09:12:47.716Z,9.52
2023-09-21T09:15:15.761Z,9.57
2023-09-21T09:17:43.747Z,11.32
2023-09-21T09:20:13.505Z,14.10
2023-09-21T09:22:41.310Z,10.85
2023-09-21T09:25:10.913Z,9.27
2023-09-21T09:27:42.659Z,12.52
2023-09-21T09:30:12.940Z,13.40
2023-09-21T09:32:43.072Z,11.95
2023-09-21T09:35:13.723Z,10.07
2023-09-21T09:37:44.075Z,12.43
2023-09-21T09:40:14.578Z,10.55
2023-09-21T09:42:44.465Z,12.45
2023-09-21T09:45:20.183Z,11.23
2023-09-21T09:47:52.837Z,12.63
2023-09-21T09:50:25.816Z,11.00
2023-09-21T09:53:02.412Z,10.43
2023-09-21T09:55:31.201Z,11.25
2023-09-21T09:57:59.740Z,9.68
2023-09-21T10:00:28.851Z,12.05
2023-09-21T10:02:58.286Z,15.23
2023-09-21T10:05:27.667Z,8.25
2023-09-21T10:08:00.533Z,8.82
2023-09-21T10:10:33.230Z,7.75
2023-09-21T10:13:00.734Z,8.63
2023-09-21T10:15:30.967Z,8.07
2023-09-21T10:17:58.946Z,8.88
2023-09-21T10:20:29.198Z,7.38
2023-09-21T10:23:00.306Z,6.82
2023-09-21T10:25:33.996Z,8.60
2023-09-21T10:28:01.368Z,6.10
2023-09-21T10:30:29.079Z,5.85
2023-09-21T10:32:58.586Z,7.68
2023-09-21T10:35:28.977Z,8.25
2023-09-21T10:38:13.692Z,7.65
2023-09-21T10:40:42.430Z,7.65
2023-09-21T10:43:12.816Z,6.97
2023-09-21T10:45:45.677Z,6.40
2023-09-21T10:48:13.499Z,6.50
2023-09-21T10:50:41.528Z,6.07
2023-09-21T10:53:10.144Z,5.15
2023-09-21T10:55:41.368Z,7.85
2023-09-21T10:58:08.708Z,5.97
2023-09-21T11:00:36.613Z,5.43
2023-09-21T11:03:04.726Z,5.15
2023-09-21T11:05:32.553Z,6.55
2023-09-21T11:08:00.397Z,6.55
2023-09-21T11:10:27.934Z,5.55
2023-09-21T11:12:56.044Z,5.90
2023-09-21T11:15:23.454Z,5.18
2023-09-21T11:17:51.743Z,7.05
2023-09-21T11:20:21.360Z,5.47
2023-09-21T11:22:51.053Z,8.88
2023-09-21T11:25:22.064Z,5.65
2023-09-21T11:27:51.674Z,5.57
2023-09-21T11:30:20.050Z,5.80
2023-09-21T11:32:49.653Z,4.88
2023-09-21T11:35:18.885Z,5.10
2023-09-21T11:37:47.860Z,6.93
2023-09-21T11:40:16.939Z,5.35
2023-09-21T11:42:46.151Z,5.32
2023-09-21T11:45:16.825Z,6.50
2023-09-21T11:47:48.134Z,8.10
2023-09-21T11:50:21.768Z,6.63
2023-09-21T11:55:19.233Z,7.93
2023-09-21T11:57:46.484Z,5.40
2023-09-21T12:00:18.899Z,8.63
2023-09-21T12:02:47.280Z,8.88
2023-09-21T12:05:15.534Z,7.43
2023-09-21T12:07:42.840Z,7.57
2023-09-21T12:10:10.260Z,8.73
2023-09-21T12:12:37.552Z,7.97
2023-09-21T12:15:05.701Z,6.10
2023-09-21T12:17:34.201Z,10.05
2023-09-21T12:20:01.504Z,6.63
2023-09-21T12:22:29.879Z,7.00
2023-09-21T12:24:58.247Z,7.90
2023-09-21T12:27:25.425Z,7.65
2023-09-21T12:29:53.770Z,7.05
2023-09-21T12:32:22.489Z,6.55
2023-09-21T12:34:50.259Z,8.40
2023-09-21T12:37:19.976Z,7.30
2023-09-21T12:39:47.303Z,8.60
2023-09-21T12:42:15.852Z,6.22
2023-09-21T12:44:44.212Z,7.20
2023-09-21T12:47:11.891Z,7.53
2023-09-21T12:49:40.516Z,8.40
2023-09-21T12:52:07.888Z,8.73
2023-09-21T12:54:35.231Z,8.85
2023-09-21T12:57:04.499Z,7.28
2023-09-21T12:59:32.774Z,9.43
2023-09-21T13:02:00.014Z,8.98
2023-09-21T13:04:27.821Z,9.25
2023-09-21T13:06:56.474Z,8.88
2023-09-21T13:09:23.759Z,7.57
2023-09-21T13:11:51.266Z,8.43
2023-09-21T13:14:18.667Z,13.57
2023-09-21T13:16:45.935Z,11.52
2023-09-21T13:19:15.286Z,10.40
2023-09-21T13:21:42.825Z,8.73
2023-09-21T13:24:10.396Z,13.43
2023-09-21T13:26:38.774Z,11.10
2023-09-21T13:29:06.083Z,10.25
2023-09-21T13:31:33.940Z,9.65
2023-09-21T13:34:01.441Z,8.90
2023-09-21T13:36:28.795Z,9.52
2023-09-21T13:38:56.133Z,8.32
2023-09-21T13:41:23.566Z,9.20
2023-09-21T13:43:51.038Z,8.98
2023-09-21T13:46:19.035Z,11.50
2023-09-21T13:48:46.657Z,10.20
2023-09-21T13:51:14.135Z,8.85
2023-09-21T13:53:42.172Z,10.07
2023-09-21T13:56:09.372Z,7.95
2023-09-21T13:58:36.953Z,8.55
2023-09-21T14:01:04.561Z,9.02
2023-09-21T14:03:33.552Z,10.32
2023-09-21T14:06:01.249Z,10.75
2023-09-21T14:08:28.652Z,9.25
2023-09-21T14:10:55.947Z,7.32
2023-09-21T14:13:23.742Z,8.27
2023-09-21T14:15:50.952Z,7.55
2023-09-21T14:18:18.622Z,7.90
2023-09-21T14:20:46.050Z,7.05
2023-09-21T14:23:13.354Z,10.15
2023-09-21T14:25:40.542Z,7.65
2023-09-21T14:28:07.984Z,5.50
2023-09-21T14:30:35.225Z,7.40
2023-09-21T14:33:02.753Z,6.20
2023-09-21T14:35:30.246Z,8.95
2023-09-21T14:37:57.604Z,8.27
2023-09-21T14:40:24.827Z,5.57
2023-09-21T14:42:52.982Z,7.88
2023-09-21T14:45:20.969Z,5.50
2023-09-21T14:47:48.663Z,5.35
2023-09-21T14:50:16.292Z,7.28
2023-09-21T14:52:43.864Z,7.35
2023-09-21T14:55:11.020Z,7.25
2023-09-21T14:57:38.534Z,6.28
2023-09-21T15:00:08.202Z,5.82
2023-09-21T15:02:38.707Z,7.20
2023-09-21T15:05:08.435Z,8.07
2023-09-21T15:07:37.342Z,9.15
2023-09-21T15:10:05.913Z,12.52
2023-09-21T15:12:33.507Z,7.47
2023-09-21T15:15:01.066Z,7.93
2023-09-21T15:17:28.653Z,9.32
2023-09-21T15:19:57.010Z,8.15
2023-09-21T15:22:24.619Z,8.18
2023-09-21T15:24:52.756Z,9.88
2023-09-21T15:27:20.885Z,8.52
2023-09-21T15:29:48.967Z,8.18
2023-09-21T15:32:17.283Z,9.60
2023-09-21T15:34:45.712Z,10.85
2023-09-21T15:37:13.204Z,9.80
2023-09-21T15:39:40.686Z,11.95
2023-09-21T15:42:08.749Z,10.60
2023-09-21T15:44:36.048Z,9.55
2023-09-21T15:47:04.620Z,8.15
2023-09-21T15:49:32.142Z,9.07
2023-09-21T15:52:00.218Z,12.25
2023-09-21T15:54:28.523Z,8.77
2023-09-21T15:56:56.160Z,7.18
2023-09-21T15:59:23.314Z,11.55
2023-09-21T16:01:51.002Z,9.50
2023-09-21T16:04:18.761Z,11.35
2023-09-21T16:06:46.172Z,12.13
2023-09-21T16:09:13.636Z,10.18
2023-09-21T16:11:42.908Z,9.95
2023-09-21T16:14:10.184Z,11.27
2023-09-21T16:16:37.712Z,14.52
2023-09-21T16:19:05.173Z,8.95
2023-09-21T16:21:35.201Z,10.93
2023-09-21T16:24:03.572Z,10.60
2023-09-21T16:26:31.295Z,9.55
2023-09-21T16:28:58.596Z,12.25
2023-09-21T16:31:27.404Z,9.13
2023-09-21T16:33:55.229Z,12.05
2023-09-21T16:36:22.684Z,10.90
2023-09-21T16:38:50.291Z,10.95
2023-09-21T16:41:19.291Z,10.65
2023-09-21T16:43:46.736Z,9.82
2023-09-21T16:46:31.978Z,9.95
2023-09-21T16:49:02.871Z,9.50
2023-09-21T16:51:30.161Z,12.88
2023-09-21T16:53:59.494Z,11.32
2023-09-21T16:56:26.926Z,9.07
2023-09-21T16:58:54.431Z,12.73
2023-09-21T17:01:22.063Z,12.75
2023-09-21T17:03:50.318Z,7.95
2023-09-21T17:06:17.700Z,13.60
2023-09-21T17:08:45.219Z,12.57
2023-09-21T17:11:12.456Z,11.35
2023-09-21T17:13:39.873Z,13.40
2023-09-21T17:16:07.427Z,9.50
2023-09-21T17:18:34.920Z,8.55
2023-09-21T17:21:02.207Z,10.27
2023-09-21T17:23:29.456Z,8.48
2023-09-21T17:25:56.808Z,13.85
2023-09-21T17:28:24.328Z,12.65
2023-09-21T17:30:51.660Z,9.65
2023-09-21T17:33:19.269Z,10.98
2023-09-21T17:35:46.595Z,10.05
2023-09-21T17:38:16.166Z,11.02
2023-09-21T17:40:43.632Z,7.85
2023-09-21T17:43:11.262Z,9.65
2023-09-21T17:45:38.470Z,9.50
2023-09-21T17:48:11.515Z,10.20
2023-09-21T17:50:49.846Z,10.02
2023-09-21T17:53:21.605Z,9.93
2023-09-21T17:55:50.845Z,10.55
2023-09-21T17:58:18.046Z,11.00
2023-09-21T18:00:46.375Z,9.10
2023-09-21T18:03:13.782Z,11.15
2023-09-21T18:05:41.066Z,8.93
2023-09-21T18:08:08.414Z,12.40
2023-09-21T18:10:38.759Z,11.50
2023-09-21T18:13:07.865Z,14.48
2023-09-21T18:15:35.591Z,13.00
2023-09-21T18:18:04.634Z,14.95
2023-09-21T18:20:32.032Z,11.43
2023-09-21T18:22:59.959Z,11.20
2023-09-21T18:25:27.727Z,10.32
2023-09-21T18:27:56.073Z,13.13
2023-09-21T18:30:24.879Z,11.98
2023-09-21T18:32:52.505Z,10.80
2023-09-21T18:35:20.570Z,10.82
2023-09-21T18:37:49.052Z,8.68
2023-09-21T18:40:16.390Z,9.93
2023-09-21T18:42:43.681Z,8.32
2023-09-21T18:45:12.429Z,9.05
2023-09-21T18:47:39.892Z,10.82
2023-09-21T18:50:08.916Z,10.77
2023-09-21T18:52:37.545Z,11.27
2023-09-21T18:55:08.286Z,11.90
2023-09-21T18:57:36.017Z,14.95
2023-09-21T19:00:04.729Z,12.88
2023-09-21T19:02:32.398Z,11.18
2023-09-21T19:04:59.674Z,12.38
2023-09-21T19:07:27.036Z,19.38
2023-09-21T19:09:55.232Z,15.85
2023-09-21T19:12:22.781Z,16.77
2023-09-21T19:14:50.088Z,18.08
2023-09-21T19:17:17.464Z,15.00
2023-09-21T19:19:44.651Z,13.63
2023-09-21T19:22:12.027Z,18.65
2023-09-21T19:24:39.282Z,13.30
2023-09-21T19:27:06.681Z,16.65
2023-09-21T19:29:35.859Z,10.48
2023-09-21T19:32:03.270Z,12.20
2023-09-21T19:34:30.790Z,11.68
2023-09-21T19:36:58.360Z,10.75
2023-09-21T19:39:26.450Z,9.73
2023-09-21T19:41:53.842Z,11.57
2023-09-21T19:44:21.235Z,10.50
2023-09-21T19:46:48.526Z,9.18
2023-09-21T19:49:15.781Z,9.85
2023-09-21T19:51:44.415Z,12.57
2023-09-21T19:54:11.682Z,15.55
2023-09-21T19:56:40.440Z,12.25
2023-09-21T19:59:07.672Z,11.07
2023-09-21T20:01:35.007Z,12.48
2023-09-21T20:04:03.466Z,9.73
2023-09-21T20:06:30.957Z,11.55
2023-09-21T20:08:58.327Z,11.98
2023-09-21T20:11:26.122Z,14.25
2023-09-21T20:13:54.572Z,10.20
2023-09-21T20:16:23.733Z,16.05
2023-09-21T20:18:51.294Z,13.02
2023-09-21T20:21:18.976Z,12.98
2023-09-21T20:23:46.280Z,14.68
2023-09-21T20:26:13.832Z,10.93
2023-09-21T20:28:41.221Z,12.45
2023-09-21T20:31:08.620Z,15.45
2023-09-21T20:33:35.991Z,10.00
2023-09-21T20:36:03.746Z,12.43
2023-09-21T20:38:31.055Z,9.77
2023-09-21T20:40:59.363Z,11.63
2023-09-21T20:43:26.733Z,17.40
2023-09-21T20:45:55.697Z,8.50
2023-09-21T20:48:23.326Z,13.63
2023-09-21T20:50:51.391Z,12.13
2023-09-21T20:53:18.892Z,13.75
2023-09-21T20:55:47.658Z,15.10
2023-09-21T20:58:15.036Z,11.43
2023-09-21T21:00:42.488Z,11.25
2023-09-21T21:03:10.962Z,16.98
2023-09-21T21:05:38.536Z,15.02
2023-09-21T21:08:06.906Z,14.07
2023-09-21T21:10:34.421Z,19.50
2023-09-21T21:13:01.792Z,16.73
2023-09-21T21:15:29.340Z,13.95
2023-09-21T21:17:56.667Z,14.85
2023-09-21T21:20:24.111Z,17.02
2023-09-21T21:22:51.475Z,15.98
2023-09-21T21:25:19.021Z,14.27
2023-09-21T21:27:46.932Z,16.77
2023-09-21T21:30:14.649Z,15.18
2023-09-21T21:32:42.006Z,17.65
2023-09-21T21:35:16.660Z,13.45
2023-09-21T21:37:45.205Z,17.42
2023-09-21T21:40:13.651Z,17.10
2023-09-21T21:42:41.854Z,15.45
2023-09-21T21:45:09.828Z,15.15
2023-09-21T21:47:37.235Z,22.30
2023-09-21T21:50:05.203Z,13.70
2023-09-21T21:52:32.667Z,15.88
2023-09-21T21:55:00.379Z,15.05
2023-09-21T21:57:27.940Z,17.88
2023-09-21T21:59:55.259Z,16.63
2023-09-21T22:02:22.823Z,15.35
2023-09-21T22:04:51.377Z,16.10
2023-09-21T22:07:21.769Z,13.63
2023-09-21T22:09:50.815Z,17.33
2023-09-21T22:12:19.645Z,11.48
2023-09-21T22:14:46.948Z,13.18
2023-09-21T22:17:14.500Z,13.55
2023-09-21T22:19:43.544Z,16.20
2023-09-21T22:22:13.359Z,16.30
2023-09-21T22:24:40.666Z,14.98
2023-09-21T22:27:08.973Z,15.77
2023-09-21T22:29:36.200Z,14.40
2023-09-21T22:32:03.523Z,15.98
2023-09-21T22:34:31.080Z,16.00
2023-09-21T22:36:58.497Z,13.88
2023-09-21T22:39:25.896Z,16.00
2023-09-21T22:41:53.465Z,19.05
2023-09-21T22:44:20.889Z,17.27
2023-09-21T22:46:49.993Z,13.65
2023-09-21T22:49:17.390Z,18.08
2023-09-21T22:52:04.370Z,14.50
2023-09-21T22:54:31.918Z,14.98
2023-09-21T22:56:59.851Z,15.00
2023-09-21T22:59:27.313Z,12.65
2023-09-21T23:01:54.711Z,13.45
2023-09-21T23:04:23.433Z,14.30
2023-09-21T23:06:50.899Z,15.57
2023-09-21T23:09:18.703Z,23.98
2023-09-21T23:11:46.165Z,15.77
2023-09-21T23:14:13.859Z,22.27
2023-09-21T23:16:41.697Z,20.38
2023-09-21T23:19:09.274Z,16.90
2023-09-21T23:21:36.806Z,16.75
2023-09-21T23:24:04.785Z,15.63
2023-09-21T23:26:34.924Z,20.35
2023-09-21T23:29:02.355Z,12.98
2023-09-21T23:31:33.163Z,21.55
2023-09-21T23:34:00.771Z,13.38
2023-09-21T23:36:28.697Z,24.73
2023-09-21T23:38:59.510Z,20.83
2023-09-21T23:41:27.096Z,17.75
2023-09-21T23:43:54.394Z,15.57
2023-09-21T23:46:21.935Z,17.52
2023-09-21T23:48:49.306Z,16.63
2023-09-21T23:51:18.210Z,20.92
2023-09-21T23:53:45.958Z,13.90
2023-09-21T23:56:13.477Z,21.65
2023-09-21T23:58:41.956Z,14.63
